Time;durP1;ratioP1;P1;durP2;ratioP2;P2;SDS_P1;SDS_P2;PMS_P1;PMS_P2;Temp;Humidity;BMP_temperature;BMP_pressure;BME280_temperature;BME280_humidity;BME280_pressure;Samples;Min_cycle;Max_cycle;Signal;HPM_P1;HPM_P2
2022/07/14 00:01:56;;;;;;;2.90;2.70;;;22.90;68.10;;;;;;5095226;28;20512;-68
2022/07/14 00:04:23;;;;;;;3.17;2.90;;;22.90;68.30;;;;;;5095217;28;20531;-69
2022/07/14 00:06:51;;;;;;;2.70;2.50;;;22.90;69.40;;;;;;5095356;28;20472;-69
2022/07/14 00:09:18;;;;;;;2.80;2.60;;;23.00;68.90;;;;;;5095276;28;20481;-69
2022/07/14 00:11:45;;;;;;;2.73;2.50;;;22.90;68.40;;;;;;5094099;28;20492;-69
2022/07/14 00:14:12;;;;;;;4.07;2.90;;;22.70;69.20;;;;;;5094821;28;20483;-68
2022/07/14 00:16:39;;;;;;;2.70;2.57;;;22.60;70.10;;;;;;5095064;28;20484;-69
2022/07/14 00:19:05;;;;;;;2.70;2.60;;;22.50;71.40;;;;;;5095018;28;20443;-69
2022/07/14 00:21:33;;;;;;;2.50;2.33;;;22.60;71.00;;;;;;5094921;28;20482;-69
2022/07/14 00:24:01;;;;;;;2.80;2.60;;;22.70;71.30;;;;;;5094601;28;20483;-69
2022/07/14 00:26:28;;;;;;;2.43;2.33;;;22.80;71.20;;;;;;5094982;28;20449;-69
2022/07/14 00:28:55;;;;;;;2.50;2.33;;;22.90;70.90;;;;;;5094906;28;20890;-69
2022/07/14 00:31:21;;;;;;;2.40;2.17;;;22.80;69.90;;;;;;5094742;28;20432;-69
2022/07/14 00:33:48;;;;;;;3.37;3.07;;;22.70;69.30;;;;;;5094691;28;20483;-69
2022/07/14 00:36:15;;;;;;;2.70;2.50;;;22.70;69.20;;;;;;5094781;28;20472;-68
2022/07/14 00:38:42;;;;;;;2.43;2.33;;;22.60;70.00;;;;;;5094751;28;20477;-68
2022/07/14 00:41:10;;;;;;;3.23;2.93;;;22.40;71.80;;;;;;5094659;28;20566;-68
2022/07/14 00:43:38;;;;;;;3.70;2.80;;;22.30;71.40;;;;;;5094617;28;20865;-69
2022/07/14 00:46:05;;;;;;;3.27;3.07;;;22.30;72.10;;;;;;5094344;28;20448;-68
2022/07/14 00:48:32;;;;;;;2.93;2.73;;;22.40;73.60;;;;;;5094569;28;20444;-69
2022/07/14 00:50:59;;;;;;;2.80;2.60;;;22.50;73.60;;;;;;5094347;28;20437;-69
2022/07/14 00:53:26;;;;;;;3.43;3.23;;;22.50;72.70;;;;;;5094153;28;20827;-69
2022/07/14 00:55:53;;;;;;;3.63;3.03;;;22.60;73.90;;;;;;5094231;28;20471;-69
2022/07/14 00:58:21;;;;;;;3.33;3.00;;;22.60;74.60;;;;;;5094579;28;20875;-69
2022/07/14 01:00:49;;;;;;;3.17;2.97;;;22.60;74.70;;;;;;5094289;28;21065;-69
2022/07/14 01:03:17;;;;;;;3.80;3.40;;;22.60;76.90;;;;;;5094283;28;20487;-69
2022/07/14 01:05:44;;;;;;;3.50;3.20;;;22.50;76.10;;;;;;5094099;28;20535;-68
2022/07/14 01:08:11;;;;;;;3.33;3.03;;;22.40;76.90;;;;;;5094221;28;20444;-68
2022/07/14 01:10:37;;;;;;;3.43;3.23;;;22.30;76.90;;;;;;5094212;28;20569;-68
2022/07/14 01:13:06;;;;;;;3.30;3.00;;;22.30;77.30;;;;;;5094100;28;20912;-69
2022/07/14 01:15:35;;;;;;;3.33;3.03;;;22.30;78.30;;;;;;5093959;28;20472;-69
2022/07/14 01:18:03;;;;;;;3.50;3.20;;;22.30;78.30;;;;;;5094122;28;20440;-68
2022/07/14 01:20:30;;;;;;;3.70;3.40;;;22.30;78.50;;;;;;5093941;28;20478;-69
2022/07/14 01:22:58;;;;;;;3.33;3.13;;;22.30;78.80;;;;;;5093787;28;20468;-69
2022/07/14 01:25:25;;;;;;;4.43;3.57;;;22.20;79.20;;;;;;5093600;28;20807;-69
2022/07/14 01:27:52;;;;;;;3.67;3.37;;;22.00;79.60;;;;;;5093908;28;20447;-69
2022/07/14 01:30:19;;;;;;;3.27;2.97;;;21.80;79.90;;;;;;5093929;28;20471;-68
2022/07/14 01:32:46;;;;;;;3.57;3.20;;;21.90;80.10;;;;;;5093634;28;21056;-68
2022/07/14 01:35:13;;;;;;;2.90;2.70;;;21.80;79.50;;;;;;5093725;28;20476;-68
2022/07/14 01:37:40;;;;;;;4.03;3.20;;;21.70;80.40;;;;;;5093400;28;20806;-68
2022/07/14 01:40:09;;;;;;;3.50;3.20;;;21.80;80.70;;;;;;5093739;28;20440;-69
2022/07/14 01:42:36;;;;;;;3.10;2.90;;;21.80;80.50;;;;;;5093661;28;20568;-68
2022/07/14 01:45:04;;;;;;;4.33;3.53;;;21.90;82.20;;;;;;5093348;28;20483;-68
2022/07/14 01:47:31;;;;;;;3.50;3.30;;;21.90;83.20;;;;;;5093660;28;20444;-69
2022/07/14 01:49:58;;;;;;;3.63;3.33;;;21.90;84.10;;;;;;5093530;28;20480;-68
2022/07/14 01:52:24;;;;;;;3.60;3.30;;;21.90;85.00;;;;;;5093831;28;20505;-68
2022/07/14 01:54:51;;;;;;;3.83;3.53;;;22.00;86.30;;;;;;5093128;28;20455;-69
2022/07/14 01:57:19;;;;;;;3.07;2.87;;;21.90;86.10;;;;;;5093611;28;20448;-69
2022/07/14 01:59:46;;;;;;;3.60;3.30;;;21.90;85.40;;;;;;5093833;28;20471;-68
2022/07/14 02:02:13;;;;;;;3.60;3.30;;;21.90;85.10;;;;;;5093330;28;20918;-68
2022/07/14 02:04:40;;;;;;;3.73;3.43;;;21.90;85.70;;;;;;5093133;28;20451;-69
2022/07/14 02:07:07;;;;;;;3.87;3.57;;;21.70;86.30;;;;;;5093447;28;20441;-69
2022/07/14 02:12:19;;;;;;;3.80;3.50;;;21.70;88.00;;;;;;5093555;28;20944;-69
2022/07/14 02:14:46;;;;;;;3.47;3.17;;;21.70;88.70;;;;;;5093202;28;20444;-69
2022/07/14 02:17:13;;;;;;;3.13;2.93;;;21.70;88.80;;;;;;5093394;28;20945;-68
2022/07/14 02:19:40;;;;;;;3.50;3.20;;;21.60;88.60;;;;;;5093417;28;20483;-69
2022/07/14 02:22:07;;;;;;;3.20;3.00;;;21.60;86.60;;;;;;5093776;28;20521;-68
2022/07/14 02:24:34;;;;;;;3.13;2.93;;;21.50;85.30;;;;;;5093192;28;20475;-69
2022/07/14 02:27:00;;;;;;;2.80;2.60;;;21.50;84.70;;;;;;5093336;28;20443;-68
2022/07/14 02:29:29;;;;;;;3.10;2.90;;;21.40;84.40;;;;;;5093382;28;20534;-69
2022/07/14 02:31:56;;;;;;;3.33;3.13;;;21.40;83.80;;;;;;5093131;28;20463;-69
2022/07/14 02:34:23;;;;;;;3.30;3.10;;;21.40;83.80;;;;;;5093029;28;20479;-68
2022/07/14 02:36:50;;;;;;;3.20;3.00;;;21.40;84.00;;;;;;5097075;28;20483;-68
2022/07/14 02:39:17;;;;;;;3.10;2.80;;;21.30;84.10;;;;;;5097138;28;20483;-68
2022/07/14 02:41:44;;;;;;;2.90;2.70;;;21.30;84.00;;;;;;5096943;28;20522;-69
2022/07/14 02:44:11;;;;;;;3.00;2.70;;;21.20;83.80;;;;;;5096926;28;20519;-68
2022/07/14 02:46:39;;;;;;;3.00;2.80;;;21.20;84.20;;;;;;5096924;28;20448;-68
2022/07/14 02:49:06;;;;;;;4.07;3.17;;;21.30;84.60;;;;;;5096878;28;20543;-69
2022/07/14 02:51:34;;;;;;;3.43;3.17;;;21.30;85.20;;;;;;5096738;28;20566;-68
2022/07/14 02:54:01;;;;;;;3.43;3.23;;;21.20;84.50;;;;;;5096534;28;20465;-69
2022/07/14 02:56:27;;;;;;;3.40;3.10;;;21.20;85.50;;;;;;5096628;28;20936;-68
2022/07/14 02:58:56;;;;;;;2.83;2.73;;;21.10;84.60;;;;;;5096691;28;20878;-68
2022/07/14 03:01:23;;;;;;;3.60;3.30;;;21.00;84.50;;;;;;5096712;28;20443;-68
2022/07/14 03:03:51;;;;;;;2.90;2.63;;;21.00;85.30;;;;;;5096529;28;20475;-69
2022/07/14 03:06:19;;;;;;;3.07;2.87;;;21.10;84.90;;;;;;5096462;28;20478;-68
2022/07/14 03:08:47;;;;;;;3.03;2.83;;;21.00;84.40;;;;;;5096512;28;20461;-68
2022/07/14 03:11:14;;;;;;;2.70;2.50;;;21.00;84.40;;;;;;5096503;28;20475;-68
2022/07/14 03:13:41;;;;;;;2.93;2.73;;;21.00;84.40;;;;;;5096428;28;20478;-69
2022/07/14 03:16:10;;;;;;;4.23;2.53;;;21.00;84.20;;;;;;5096311;28;20440;-69
2022/07/14 03:18:37;;;;;;;3.00;2.80;;;20.90;84.10;;;;;;5096317;28;20500;-68
2022/07/14 03:21:09;;;;;;;3.37;3.10;;;20.90;85.10;;;;;;5096194;28;20978;-69
2022/07/14 03:23:36;;;;;;;3.40;3.10;;;20.90;85.90;;;;;;5095999;28;20463;-68
2022/07/14 03:26:04;;;;;;;3.20;3.00;;;20.90;85.80;;;;;;5096083;28;20527;-68
2022/07/14 03:28:31;;;;;;;3.17;2.97;;;20.80;86.20;;;;;;5096135;28;20487;-68
2022/07/14 03:30:58;;;;;;;4.03;3.33;;;20.80;86.30;;;;;;5096019;28;20447;-68
2022/07/14 03:33:25;;;;;;;3.43;3.13;;;20.80;87.00;;;;;;5096046;28;20498;-68
2022/07/14 03:35:52;;;;;;;3.30;2.70;;;20.80;87.90;;;;;;5095797;28;20478;-68
2022/07/14 03:38:21;;;;;;;2.57;2.43;;;20.70;86.50;;;;;;5096102;28;20475;-68
2022/07/14 03:40:48;;;;;;;2.90;2.70;;;20.70;86.50;;;;;;5096126;28;20478;-68
2022/07/14 03:43:14;;;;;;;3.20;3.00;;;20.60;85.20;;;;;;5095513;28;20489;-68
2022/07/14 03:45:41;;;;;;;5.40;2.70;;;20.30;86.20;;;;;;5095232;28;20529;-68
2022/07/14 03:48:08;;;;;;;3.40;2.93;;;20.20;86.80;;;;;;5094712;28;20484;-68
2022/07/14 03:50:36;;;;;;;2.93;2.63;;;20.20;88.20;;;;;;5095723;28;20467;-68
2022/07/14 03:53:04;;;;;;;2.43;2.33;;;20.20;88.30;;;;;;5095249;28;20491;-69
2022/07/14 03:55:32;;;;;;;2.80;2.60;;;20.20;88.20;;;;;;5095462;28;20485;-69
2022/07/14 03:58:00;;;;;;;2.93;2.73;;;20.30;87.90;;;;;;5095616;28;20474;-68
2022/07/14 04:00:27;;;;;;;3.30;3.10;;;20.30;88.10;;;;;;5095518;28;20447;-68
2022/07/14 04:02:54;;;;;;;3.17;2.87;;;20.30;88.00;;;;;;5095472;28;20499;-68
2022/07/14 04:05:21;;;;;;;3.30;3.10;;;20.30;88.90;;;;;;5095167;28;20856;-68
2022/07/14 04:07:48;;;;;;;4.13;3.80;;;20.40;90.70;;;;;;5095608;28;20479;-68
2022/07/14 04:10:15;;;;;;;4.10;3.80;;;20.40;91.30;;;;;;5095191;28;20478;-68
2022/07/14 04:12:44;;;;;;;3.80;3.40;;;20.30;91.90;;;;;;5095300;28;20581;-68
2022/07/14 04:15:11;;;;;;;4.57;4.17;;;20.30;92.50;;;;;;5094998;28;20533;-68
2022/07/14 04:17:38;;;;;;;4.30;4.00;;;20.30;92.80;;;;;;5095324;28;20445;-68
2022/07/14 04:20:06;;;;;;;4.03;3.63;;;20.40;93.40;;;;;;5095030;28;20439;-68
2022/07/14 04:22:33;;;;;;;3.60;3.30;;;20.40;93.40;;;;;;5094872;28;20464;-69
2022/07/14 04:25:00;;;;;;;3.27;2.97;;;20.30;93.30;;;;;;5094499;28;20474;-68
2022/07/14 04:27:27;;;;;;;3.27;3.07;;;20.30;92.70;;;;;;5094883;28;20537;-68
2022/07/14 04:29:55;;;;;;;3.20;3.00;;;20.30;92.60;;;;;;5094858;28;20870;-68
2022/07/14 04:32:22;;;;;;;3.33;3.07;;;20.20;92.20;;;;;;5094537;28;20519;-68
2022/07/14 04:34:49;;;;;;;3.37;3.17;;;20.20;91.70;;;;;;5094324;28;20893;-68
2022/07/14 04:37:16;;;;;;;3.30;3.10;;;20.20;92.40;;;;;;5094660;28;20438;-68
2022/07/14 04:39:43;;;;;;;3.13;2.93;;;20.20;92.40;;;;;;5094697;28;20445;-68
2022/07/14 04:42:10;;;;;;;5.50;3.80;;;20.30;92.80;;;;;;5094211;28;20497;-68
2022/07/14 04:44:37;;;;;;;3.60;3.07;;;20.30;93.10;;;;;;5094259;28;20451;-68
2022/07/14 04:47:05;;;;;;;4.03;3.73;;;20.20;93.50;;;;;;5094583;28;20474;-68
2022/07/14 04:52:17;;;;;;;3.47;3.27;;;20.30;93.40;;;;;;5094393;28;20523;-68
2022/07/14 04:54:45;;;;;;;3.73;3.43;;;20.40;93.30;;;;;;5094020;28;20462;-68
2022/07/14 04:57:12;;;;;;;3.43;3.20;;;20.40;93.70;;;;;;5094150;28;20446;-68
2022/07/14 04:59:39;;;;;;;3.67;3.37;;;20.40;93.40;;;;;;5094165;28;20439;-68
2022/07/14 05:02:08;;;;;;;3.27;3.00;;;20.40;93.60;;;;;;5094094;28;20490;-69
2022/07/14 05:04:35;;;;;;;3.70;3.00;;;20.40;92.80;;;;;;5093777;28;20457;-68
2022/07/14 05:07:02;;;;;;;3.27;3.07;;;20.40;92.20;;;;;;5094171;28;20443;-68
2022/07/14 05:09:32;;;;;;;3.77;3.33;;;20.50;92.80;;;;;;5094147;28;20450;-68
2022/07/14 05:12:00;;;;;;;6.30;5.23;;;20.50;93.40;;;;;;5094127;28;20522;-68
2022/07/14 05:14:29;;;;;;;4.00;3.60;;;20.60;93.50;;;;;;5093867;28;20457;-68
2022/07/14 05:16:56;;;;;;;3.00;2.80;;;20.60;92.70;;;;;;5093946;28;20448;-68
2022/07/14 05:19:24;;;;;;;3.37;3.07;;;20.50;92.00;;;;;;5093980;28;20482;-68
2022/07/14 05:21:52;;;;;;;3.63;3.33;;;20.50;91.80;;;;;;5093950;28;20492;-68
2022/07/14 05:24:18;;;;;;;3.50;3.20;;;20.50;91.60;;;;;;5093859;28;20782;-68
2022/07/14 05:26:45;;;;;;;3.50;3.20;;;20.60;91.40;;;;;;5093740;28;20896;-69
2022/07/14 05:29:12;;;;;;;4.80;3.67;;;20.60;91.50;;;;;;5093736;28;20971;-68
2022/07/14 05:31:39;;;;;;;4.00;3.70;;;20.70;91.90;;;;;;5093346;28;20503;-69
2022/07/14 05:34:06;;;;;;;3.53;3.30;;;20.80;91.90;;;;;;5093334;28;20478;-68
2022/07/14 05:36:35;;;;;;;3.50;3.27;;;20.90;91.70;;;;;;5093728;28;20447;-68
2022/07/14 05:39:02;;;;;;;3.60;3.30;;;20.90;91.80;;;;;;5093765;28;20435;-68
2022/07/14 05:41:29;;;;;;;3.90;3.60;;;21.00;91.60;;;;;;5093662;28;20525;-68
2022/07/14 05:43:56;;;;;;;3.60;3.30;;;21.10;91.40;;;;;;5093495;28;20447;-68
2022/07/14 05:46:23;;;;;;;3.43;3.23;;;21.10;91.10;;;;;;5093632;28;20538;-68
2022/07/14 05:48:49;;;;;;;3.87;3.40;;;21.00;90.40;;;;;;5093398;28;20479;-68
2022/07/14 05:51:18;;;;;;;3.57;3.27;;;21.00;90.40;;;;;;5093509;28;20482;-70
2022/07/14 05:53:47;;;;;;;3.50;3.30;;;21.10;91.40;;;;;;5093024;28;20526;-69
2022/07/14 05:56:16;;;;;;;3.83;3.53;;;21.10;91.80;;;;;;5093555;28;20809;-68
2022/07/14 05:58:43;;;;;;;3.63;3.30;;;21.30;92.20;;;;;;5093483;28;20452;-68
2022/07/14 06:01:10;;;;;;;4.00;3.10;;;21.40;93.00;;;;;;5093563;28;20453;-68
2022/07/14 06:03:37;;;;;;;3.40;3.20;;;21.50;93.30;;;;;;5093733;28;20502;-68
2022/07/14 06:06:06;;;;;;;3.70;3.40;;;21.60;93.00;;;;;;5093152;28;20455;-68
2022/07/14 06:08:33;;;;;;;4.20;3.50;;;21.70;93.20;;;;;;5093441;28;20866;-68
2022/07/14 06:11:03;;;;;;;4.37;3.97;;;21.80;93.20;;;;;;5096093;28;20993;-69
2022/07/14 06:13:31;;;;;;;3.40;3.10;;;21.90;93.30;;;;;;5097138;28;20484;-68
2022/07/14 06:15:59;;;;;;;4.40;4.00;;;22.00;93.40;;;;;;5097392;28;20462;-68
2022/07/14 06:18:26;;;;;;;3.87;3.60;;;22.00;93.10;;;;;;5097297;28;20475;-68
2022/07/14 06:20:53;;;;;;;4.00;3.70;;;22.20;93.20;;;;;;5097407;28;20817;-68
2022/07/14 06:23:20;;;;;;;3.67;3.37;;;22.20;93.20;;;;;;5097190;28;20518;-69
2022/07/14 06:25:47;;;;;;;4.40;4.00;;;22.40;93.10;;;;;;5096803;28;20478;-69
2022/07/14 06:28:15;;;;;;;3.63;3.43;;;22.40;92.80;;;;;;5097135;28;20444;-68
2022/07/14 06:30:42;;;;;;;5.30;3.77;;;22.50;92.80;;;;;;5097149;28;20467;-68
2022/07/14 06:33:09;;;;;;;3.70;3.50;;;22.60;92.70;;;;;;5097234;28;20905;-69
2022/07/14 06:35:38;;;;;;;4.43;3.47;;;22.70;92.90;;;;;;5096960;28;20491;-68
2022/07/14 06:38:05;;;;;;;3.70;3.50;;;22.70;93.30;;;;;;5097001;28;20862;-68
2022/07/14 06:40:32;;;;;;;3.93;3.70;;;22.80;93.60;;;;;;5096702;28;20450;-68
2022/07/14 06:42:59;;;;;;;4.33;3.70;;;22.80;94.20;;;;;;5096971;28;20515;-68
2022/07/14 06:45:27;;;;;;;4.77;4.37;;;22.80;94.40;;;;;;5096878;28;20447;-68
2022/07/14 06:47:55;;;;;;;4.20;3.90;;;22.70;95.10;;;;;;5096709;28;20482;-68
2022/07/14 06:50:22;;;;;;;5.27;4.77;;;22.70;95.70;;;;;;5096965;28;20451;-68
2022/07/14 06:52:49;;;;;;;4.77;4.37;;;22.80;95.60;;;;;;5096570;28;20483;-69
2022/07/14 06:55:17;;;;;;;4.60;4.30;;;22.80;95.50;;;;;;5096558;28;20475;-68
2022/07/14 06:57:44;;;;;;;8.27;5.43;;;22.90;95.80;;;;;;5096520;28;20453;-68
2022/07/14 07:00:12;;;;;;;7.47;4.27;;;22.90;95.30;;;;;;5096643;28;20498;-68
2022/07/14 07:02:40;;;;;;;4.90;4.40;;;23.00;95.00;;;;;;5096472;28;20892;-68
2022/07/14 07:07:56;;;;;;;4.80;4.40;;;23.40;95.20;;;;;;5096601;28;20474;-68
2022/07/14 07:10:23;;;;;;;5.03;4.53;;;23.70;94.60;;;;;;5096484;28;20469;-68
2022/07/14 07:12:50;;;;;;;5.43;4.93;;;23.90;94.10;;;;;;5096235;28;20482;-69
2022/07/14 07:15:17;;;;;;;7.63;4.40;;;24.10;93.80;;;;;;5096159;28;20781;-68
2022/07/14 07:17:45;;;;;;;5.23;4.20;;;24.30;93.80;;;;;;5096204;28;20487;-69
2022/07/14 07:20:13;;;;;;;5.70;4.50;;;24.30;93.50;;;;;;5095849;28;20938;-69
2022/07/14 07:22:40;;;;;;;5.00;4.50;;;24.60;93.10;;;;;;5095952;28;20867;-69
2022/07/14 07:25:08;;;;;;;5.43;5.03;;;24.80;93.20;;;;;;5095832;28;20526;-69
2022/07/14 07:27:35;;;;;;;5.40;4.90;;;24.90;92.00;;;;;;5096101;28;20475;-69
2022/07/14 07:30:03;;;;;;;5.80;5.20;;;25.10;92.10;;;;;;5095998;28;20451;-69
2022/07/14 07:32:30;;;;;;;5.30;4.53;;;25.40;91.40;;;;;;5095901;28;20468;-68
2022/07/14 07:34:58;;;;;;;4.87;4.37;;;25.70;91.60;;;;;;5095779;28;20489;-69
2022/07/14 07:37:25;;;;;;;5.37;4.87;;;25.70;91.50;;;;;;5095960;28;20513;-69
2022/07/14 07:39:52;;;;;;;9.83;4.90;;;25.80;90.70;;;;;;5095791;28;20531;-69
2022/07/14 07:42:19;;;;;;;4.90;4.50;;;25.80;90.50;;;;;;5095614;28;20499;-69
2022/07/14 07:44:48;;;;;;;4.90;4.50;;;25.80;90.50;;;;;;5095548;28;20475;-69
2022/07/14 07:47:15;;;;;;;4.83;4.43;;;25.90;91.20;;;;;;5095698;28;20521;-69
2022/07/14 07:49:42;;;;;;;4.93;4.53;;;26.00;90.90;;;;;;5095884;28;20487;-69
2022/07/14 07:52:11;;;;;;;4.63;4.33;;;26.30;90.50;;;;;;5095488;28;20484;-69
2022/07/14 07:54:38;;;;;;;4.90;4.50;;;26.70;89.10;;;;;;5095106;28;20491;-69
2022/07/14 07:57:05;;;;;;;4.90;4.50;;;27.50;86.80;;;;;;5095490;28;20473;-70
2022/07/14 07:59:32;;;;;;;5.00;4.20;;;28.90;83.00;;;;;;5095477;28;20786;-69
2022/07/14 08:01:59;;;;;;;6.30;4.50;;;29.90;77.70;;;;;;5095106;28;20491;-69
2022/07/14 08:04:26;;;;;;;6.47;4.40;;;30.40;73.60;;;;;;5094956;28;20448;-69
2022/07/14 08:06:53;;;;;;;7.90;4.73;;;30.50;70.90;;;;;;5095257;28;20482;-69
2022/07/14 08:09:22;;;;;;;4.67;4.27;;;30.30;71.60;;;;;;5095247;28;20471;-69
2022/07/14 08:11:49;;;;;;;4.70;4.30;;;30.30;72.90;;;;;;5095313;28;20517;-69
2022/07/14 08:17:01;;;;;;;4.27;3.90;;;31.40;66.20;;;;;;5095211;28;20476;-69
2022/07/14 08:19:28;;;;;;;4.90;4.50;;;31.70;65.70;;;;;;5095185;28;20488;-69
2022/07/14 08:21:56;;;;;;;4.90;4.40;;;31.30;63.10;;;;;;5094877;28;20491;-69
2022/07/14 08:24:24;;;;;;;5.30;4.20;;;31.00;65.90;;;;;;5094782;28;20491;-69
2022/07/14 08:26:52;;;;;;;5.07;4.67;;;30.50;64.50;;;;;;5094939;28;20448;-69
2022/07/14 08:29:19;;;;;;;4.27;3.97;;;30.10;66.50;;;;;;5094911;28;20506;-69
2022/07/14 08:31:46;;;;;;;5.30;4.23;;;29.80;67.60;;;;;;5094868;28;20487;-69
2022/07/14 08:34:12;;;;;;;4.83;4.47;;;30.10;68.20;;;;;;5093714;28;20571;-69
2022/07/14 08:36:39;;;;;;;4.50;4.10;;;30.10;69.10;;;;;;5094683;28;20910;-69
2022/07/14 08:39:06;;;;;;;4.67;3.90;;;30.30;69.30;;;;;;5094644;28;20448;-69
2022/07/14 08:41:35;;;;;;;4.30;3.97;;;30.60;66.00;;;;;;5094576;28;20472;-69
2022/07/14 08:44:03;;;;;;;4.70;4.30;;;30.90;64.70;;;;;;5094613;28;20525;-69
2022/07/14 08:46:31;;;;;;;3.77;3.50;;;31.10;61.00;;;;;;5094432;28;20443;-69
2022/07/14 08:48:59;;;;;;;3.33;3.13;;;31.20;59.50;;;;;;5094443;28;20452;-70
2022/07/14 08:51:27;;;;;;;6.37;3.90;;;31.60;61.50;;;;;;5094290;28;20444;-69
2022/07/14 08:53:54;;;;;;;4.20;3.83;;;32.20;60.70;;;;;;5094123;28;20883;-69
2022/07/14 08:56:21;;;;;;;3.53;3.30;;;32.80;58.30;;;;;;5094412;28;20440;-69
2022/07/14 08:58:49;;;;;;;4.43;3.67;;;34.20;59.30;;;;;;5094498;28;20472;-70
2022/07/14 09:01:16;;;;;;;3.40;3.20;;;35.50;53.60;;;;;;5094320;28;20483;-69
2022/07/14 09:03:43;;;;;;;3.80;3.53;;;36.30;47.20;;;;;;5094183;28;20527;-70
2022/07/14 09:06:10;;;;;;;3.30;3.10;;;36.60;44.50;;;;;;5093972;28;20479;-69
2022/07/14 09:09:01;;;;;;;3.90;3.60;;;38.00;41.90;;;;;;5093944;28;20476;-69
2022/07/14 09:11:28;;;;;;;3.07;2.73;;;39.10;37.90;;;;;;5078810;28;20538;-67
2022/07/14 09:14:09;;;;;;;4.70;2.67;;;40.30;34.90;;;;;;5093903;28;20518;-67
2022/07/14 09:16:36;;;;;;;3.50;3.20;;;41.30;31.70;;;;;;5094100;28;20443;-67
2022/07/14 09:19:06;;;;;;;3.50;3.00;;;42.50;30.00;;;;;;5094214;28;20863;-67
2022/07/14 09:21:33;;;;;;;2.30;2.20;;;42.90;29.90;;;;;;5093727;28;20448;-67
2022/07/14 09:24:00;;;;;;;3.13;2.53;;;43.40;28.80;;;;;;5093862;28;20468;-68
2022/07/14 09:26:27;;;;;;;3.30;3.10;;;44.60;27.90;;;;;;5093912;28;20527;-67
2022/07/14 09:28:55;;;;;;;2.57;2.47;;;45.00;26.10;;;;;;5093838;28;20538;-67
2022/07/14 09:31:25;;;;;;;3.17;2.97;;;45.50;26.40;;;;;;5093844;28;20527;-67
2022/07/14 09:33:55;;;;;;;2.70;2.57;;;45.50;25.00;;;;;;5093914;28;20480;-68
2022/07/14 09:36:29;;;;;;;3.23;2.93;;;45.30;26.60;;;;;;5093848;28;20450;-67
2022/07/14 09:39:01;;;;;;;2.37;2.27;;;44.60;25.20;;;;;;5093755;28;20946;-68
2022/07/14 09:41:29;;;;;;;2.10;2.00;;;44.60;25.10;;;;;;5093643;28;20505;-68
2022/07/14 09:44:12;;;;;;;2.40;2.20;;;45.10;25.10;;;;;;5093531;28;20502;-68
2022/07/14 09:46:50;;;;;;;2.30;2.20;;;45.70;24.30;;;;;;5093711;28;20464;-68
2022/07/14 09:49:19;;;;;;;2.50;2.40;;;46.20;24.80;;;;;;5093678;28;20448;-68
2022/07/14 09:51:53;;;;;;;2.37;2.23;;;47.00;24.70;;;;;;5093786;28;20499;-68
2022/07/14 09:54:47;;;;;;;2.33;2.20;;;46.80;25.50;;;;;;5093444;28;20447;-68
2022/07/14 09:57:23;;;;;;;2.50;2.40;;;45.50;24.40;;;;;;5079103;28;20448;-68
2022/07/14 09:59:52;;;;;;;2.80;2.60;;;44.50;24.30;;;;;;5093716;28;20497;-68
2022/07/14 10:02:23;;;;;;;2.57;2.47;;;45.00;25.50;;;;;;5093424;28;20501;-68
2022/07/14 10:04:51;;;;;;;2.10;2.10;;;45.20;24.60;;;;;;5093352;28;20510;-68
2022/07/14 10:07:18;;;;;;;2.53;2.43;;;45.50;24.90;;;;;;5093364;28;20484;-68
2022/07/14 10:09:51;;;;;;;2.97;2.70;;;45.60;24.60;;;;;;5093345;28;20945;-68
2022/07/14 10:12:19;;;;;;;2.73;2.63;;;44.40;24.70;;;;;;5093325;28;20468;-68
2022/07/14 10:14:46;;;;;;;3.73;3.20;;;43.00;25.50;;;;;;5093269;28;20444;-68
2022/07/14 10:17:15;;;;;;;2.73;2.63;;;42.00;26.50;;;;;;5093223;28;20999;-68
2022/07/14 10:19:44;;;;;;;3.00;2.90;;;42.40;26.30;;;;;;5093386;28;20475;-68
2022/07/14 10:22:11;;;;;;;4.13;2.83;;;41.60;26.00;;;;;;5093220;28;20460;-68
2022/07/14 10:24:41;;;;;;;3.20;2.90;;;40.20;26.80;;;;;;5093181;28;20511;-67
2022/07/14 10:27:08;;;;;;;3.37;3.10;;;39.30;27.90;;;;;;5093282;28;20826;-67
2022/07/14 10:29:35;;;;;;;3.17;2.87;;;39.30;28.50;;;;;;5093783;28;20479;-67
2022/07/14 10:32:16;;;;;;;3.00;2.90;;;40.60;27.80;;;;;;5093273;28;20460;-68
2022/07/14 10:34:54;;;;;;;2.70;2.60;;;41.70;27.00;;;;;;5093219;28;20472;-68
2022/07/14 10:37:28;;;;;;;2.70;2.60;;;42.60;25.90;;;;;;5093359;28;20444;-68
2022/07/14 10:40:08;;;;;;;4.43;4.13;;;42.30;26.00;;;;;;5093209;28;20987;-68
2022/07/14 10:42:48;;;;;;;3.77;3.57;;;42.10;26.60;;;;;;5092843;28;20467;-68
2022/07/14 10:45:15;;;;;;;2.97;2.77;;;41.60;26.80;;;;;;5093212;28;20480;-68
2022/07/14 10:47:48;;;;;;;3.90;3.70;;;40.80;26.50;;;;;;5093016;28;20487;-68
2022/07/14 10:50:20;;;;;;;4.10;3.87;;;40.30;27.10;;;;;;5093100;28;20458;-68
2022/07/14 10:52:58;;;;;;;3.57;3.37;;;40.30;27.70;;;;;;5093219;28;20468;-68
2022/07/14 10:55:34;;;;;;;11.37;10.57;;;40.10;28.00;;;;;;5093149;28;20439;-68
2022/07/14 10:58:27;;;;;;;4.30;4.10;;;39.50;27.50;;;;;;5096880;28;20438;-68
2022/07/14 11:01:02;;;;;;;3.60;3.40;;;38.90;28.30;;;;;;5096378;28;20452;-68
2022/07/14 11:03:50;;;;;;;4.10;3.90;;;38.40;28.90;;;;;;5096214;28;20822;-68
2022/07/14 11:06:22;;;;;;;3.23;3.13;;;38.00;28.30;;;;;;5096495;28;20451;-68
2022/07/14 11:09:37;;;;;;;4.80;3.20;;;37.40;29.00;;;;;;5096371;28;20448;-68
2022/07/14 11:12:14;;;;;;;3.30;3.20;;;36.90;29.80;;;;;;5096434;28;20991;-68
2022/07/14 11:14:42;;;;;;;3.60;3.30;;;36.60;30.00;;;;;;5096281;28;20488;-68
2022/07/14 11:17:29;;;;;;;3.23;3.03;;;36.40;29.70;;;;;;5096218;28;20479;-70
2022/07/14 11:19:56;;;;;;;2.77;2.67;;;35.60;30.10;;;;;;5095863;28;20448;-70
2022/07/14 11:22:25;;;;;;;3.80;3.60;;;35.30;30.90;;;;;;5096189;28;20517;-70
2022/07/14 11:24:55;;;;;;;3.20;3.00;;;35.10;30.80;;;;;;5095991;28;20884;-69
2022/07/14 11:27:32;;;;;;;3.43;3.23;;;35.00;31.20;;;;;;5096134;28;20475;-70
2022/07/14 11:30:18;;;;;;;3.50;3.30;;;35.10;31.50;;;;;;5095907;28;21055;-70
2022/07/14 11:32:45;;;;;;;3.07;2.97;;;35.20;31.10;;;;;;5096119;28;20498;-70
2022/07/14 11:38:00;;;;;;;3.50;3.30;;;35.20;31.30;;;;;;5096248;28;20454;-70
2022/07/14 11:40:44;;;;;;;3.40;3.20;;;35.30;31.80;;;;;;5095940;28;20471;-70
2022/07/14 11:43:42;;;;;;;3.60;3.30;;;35.20;31.90;;;;;;5095838;28;20474;-69
2022/07/14 11:46:11;;;;;;;3.50;3.30;;;34.90;32.10;;;;;;5096146;28;20482;-69
2022/07/14 11:48:40;;;;;;;3.87;3.60;;;34.40;32.10;;;;;;5095676;28;20798;-70
2022/07/14 11:51:09;;;;;;;3.20;3.00;;;34.30;32.20;;;;;;5095419;28;21001;-69
2022/07/14 11:53:39;;;;;;;3.43;3.13;;;34.30;32.70;;;;;;5095632;28;20568;-69
2022/07/14 11:56:08;;;;;;;3.73;3.43;;;34.30;32.60;;;;;;5095742;28;20472;-69
2022/07/14 11:58:37;;;;;;;3.53;3.23;;;34.30;33.60;;;;;;5095501;28;20440;-69
2022/07/14 12:01:04;;;;;;;5.00;3.67;;;34.30;33.30;;;;;;5095391;28;20563;-69
2022/07/14 12:03:32;;;;;;;3.67;3.47;;;34.40;33.20;;;;;;5095631;28;20890;-69
2022/07/14 12:06:00;;;;;;;3.60;3.40;;;34.60;33.50;;;;;;5096681;28;20471;-70
2022/07/14 12:08:29;;;;;;;3.40;3.20;;;34.70;34.30;;;;;;5095457;28;20464;-68
2022/07/14 12:11:03;;;;;;;3.90;3.60;;;34.80;33.50;;;;;;5095373;28;20432;-67
2022/07/14 12:13:30;;;;;;;3.40;3.20;;;34.70;33.40;;;;;;5095152;28;20873;-69
2022/07/14 12:16:02;;;;;;;3.80;3.40;;;34.60;34.00;;;;;;5094781;28;20438;-69
2022/07/14 12:18:31;;;;;;;3.63;3.43;;;34.70;34.10;;;;;;5095086;28;20482;-69
2022/07/14 12:21:00;;;;;;;3.37;3.23;;;34.40;34.30;;;;;;5094856;28;21055;-69
2022/07/14 12:23:28;;;;;;;3.37;3.17;;;34.50;35.10;;;;;;5095020;28;20472;-69
2022/07/14 12:26:00;;;;;;;4.07;3.57;;;34.40;35.70;;;;;;5094790;28;20838;-69
2022/07/14 12:28:29;;;;;;;3.70;3.20;;;34.20;33.50;;;;;;5095016;28;20440;-69
2022/07/14 12:30:57;;;;;;;3.50;3.20;;;33.80;34.60;;;;;;5095049;28;20440;-69
2022/07/14 12:33:26;;;;;;;3.40;3.20;;;33.70;34.00;;;;;;5094537;28;20550;-69
2022/07/14 12:35:56;;;;;;;3.57;3.20;;;33.80;34.90;;;;;;5094653;28;20474;-69
2022/07/14 12:38:25;;;;;;;3.33;3.10;;;34.00;34.50;;;;;;5094683;28;20444;-69
2022/07/14 12:40:55;;;;;;;3.27;3.07;;;34.00;35.30;;;;;;5094741;28;20472;-69
2022/07/14 12:43:22;;;;;;;3.03;2.83;;;34.00;34.10;;;;;;5094384;28;20500;-67
2022/07/14 12:46:02;;;;;;;3.33;3.13;;;34.10;34.40;;;;;;5094437;28;20512;-67
2022/07/14 12:48:29;;;;;;;3.50;3.20;;;34.10;33.80;;;;;;5094837;28;20470;-69
2022/07/14 12:50:57;;;;;;;3.40;3.07;;;33.90;33.30;;;;;;5094477;28;20531;-69
2022/07/14 12:53:24;;;;;;;3.83;2.77;;;33.80;33.80;;;;;;5094154;28;20931;-69
2022/07/14 12:56:00;;;;;;;4.70;4.40;;;33.70;33.30;;;;;;5094136;28;20472;-69
2022/07/14 12:58:29;;;;;;;2.83;2.63;;;33.50;33.50;;;;;;5094301;28;20435;-69
2022/07/14 13:00:56;;;;;;;2.90;2.70;;;33.40;34.00;;;;;;5094403;28;20445;-69
2022/07/14 13:03:24;;;;;;;2.90;2.70;;;33.20;34.30;;;;;;5094240;28;20471;-70
2022/07/14 13:05:54;;;;;;;2.77;2.67;;;33.30;34.30;;;;;;5094033;28;20490;-69
2022/07/14 13:08:35;;;;;;;3.13;2.97;;;33.40;34.60;;;;;;5094056;28;20450;-69
2022/07/14 13:11:04;;;;;;;2.70;2.60;;;33.50;34.20;;;;;;5094118;28;20444;-69